sensor_id;sensor_type;location;lat;lon;timestamp;pressure;altitude;pressure_sealevel;temperature;humidity
45129;BME280;35512;56.312;101.728;2023-02-23T00:02:21;97904.47;;;-19.32;70.97
45129;BME280;35512;56.312;101.728;2023-02-23T00:04:50;97898.25;;;-19.40;71.06
45129;BME280;35512;56.312;101.728;2023-02-23T00:07:19;97913.97;;;-19.33;70.92
45129;BME280;35512;56.312;101.728;2023-02-23T00:09:48;97903.41;;;-19.40;70.79
45129;BME280;35512;56.312;101.728;2023-02-23T00:12:18;97867.78;;;-19.64;70.88
45129;BME280;35512;56.312;101.728;2023-02-23T00:14:48;97899.88;;;-19.48;70.97
45129;BME280;35512;56.312;101.728;2023-02-23T00:17:17;97913.56;;;-19.48;70.94
45129;BME280;35512;56.312;101.728;2023-02-23T00:19:46;97912.47;;;-19.55;70.76
45129;BME280;35512;56.312;101.728;2023-02-23T00:22:16;97921.16;;;-19.56;70.66
45129;BME280;35512;56.312;101.728;2023-02-23T00:24:45;97899.34;;;-19.81;70.75
45129;BME280;35512;56.312;101.728;2023-02-23T00:27:15;97918.69;;;-19.67;70.94
45129;BME280;35512;56.312;101.728;2023-02-23T00:29:49;97923.97;;;-19.59;71.03
45129;BME280;35512;56.312;101.728;2023-02-23T00:32:21;97931.59;;;-19.48;70.95
45129;BME280;35512;56.312;101.728;2023-02-23T00:34:50;97927.66;;;-19.42;71.05
45129;BME280;35512;56.312;101.728;2023-02-23T00:37:20;97919.50;;;-19.37;71.01
45129;BME280;35512;56.312;101.728;2023-02-23T00:39:50;97902.44;;;-19.38;71.20
45129;BME280;35512;56.312;101.728;2023-02-23T00:42:20;97927.59;;;-19.03;71.10
45129;BME280;35512;56.312;101.728;2023-02-23T00:44:49;97920.91;;;-18.86;71.10
45129;BME280;35512;56.312;101.728;2023-02-23T00:47:19;97918.34;;;-18.86;70.74
45129;BME280;35512;56.312;101.728;2023-02-23T00:49:49;97860.69;;;-19.13;70.90
45129;BME280;35512;56.312;101.728;2023-02-23T00:52:18;97941.84;;;-18.51;70.69
45129;BME280;35512;56.312;101.728;2023-02-23T00:54:47;97934.41;;;-18.55;70.59
45129;BME280;35512;56.312;101.728;2023-02-23T00:57:17;97922.50;;;-18.65;70.48
45129;BME280;35512;56.312;101.728;2023-02-23T00:59:46;97942.78;;;-18.52;70.29
45129;BME280;35512;56.312;101.728;2023-02-23T01:02:15;97926.13;;;-18.58;70.13
45129;BME280;35512;56.312;101.728;2023-02-23T01:04:45;97930.34;;;-18.57;70.30
45129;BME280;35512;56.312;101.728;2023-02-23T01:07:14;97940.47;;;-18.36;70.51
45129;BME280;35512;56.312;101.728;2023-02-23T01:09:43;97936.16;;;-18.17;70.37
45129;BME280;35512;56.312;101.728;2023-02-23T01:12:12;97949.19;;;-17.91;70.34
45129;BME280;35512;56.312;101.728;2023-02-23T01:14:43;97953.38;;;-17.62;70.31
45129;BME280;35512;56.312;101.728;2023-02-23T01:17:14;97958.41;;;-17.25;70.61
45129;BME280;35512;56.312;101.728;2023-02-23T01:19:47;97952.41;;;-16.63;70.84
45129;BME280;35512;56.312;101.728;2023-02-23T01:22:16;97949.25;;;-15.71;70.55
45129;BME280;35512;56.312;101.728;2023-02-23T01:24:45;97933.50;;;-14.86;70.07
45129;BME280;35512;56.312;101.728;2023-02-23T01:27:15;97946.78;;;-14.08;69.43
45129;BME280;35512;56.312;101.728;2023-02-23T01:29:47;97943.53;;;-13.70;68.43
45129;BME280;35512;56.312;101.728;2023-02-23T01:32:16;97942.50;;;-13.61;68.07
45129;BME280;35512;56.312;101.728;2023-02-23T01:34:45;97939.03;;;-13.45;67.84
45129;BME280;35512;56.312;101.728;2023-02-23T01:37:14;97947.50;;;-13.28;67.84
45129;BME280;35512;56.312;101.728;2023-02-23T01:39:43;97942.22;;;-13.20;67.62
45129;BME280;35512;56.312;101.728;2023-02-23T01:42:12;97951.19;;;-12.99;67.60
45129;BME280;35512;56.312;101.728;2023-02-23T01:47:13;97931.50;;;-12.11;67.84
45129;BME280;35512;56.312;101.728;2023-02-23T01:49:42;97940.00;;;-11.14;67.88
45129;BME280;35512;56.312;101.728;2023-02-23T01:52:13;97942.44;;;-10.06;67.94
45129;BME280;35512;56.312;101.728;2023-02-23T01:54:50;97945.69;;;-8.60;66.97
45129;BME280;35512;56.312;101.728;2023-02-23T01:57:23;97923.44;;;-7.45;66.08
45129;BME280;35512;56.312;101.728;2023-02-23T01:59:55;97934.97;;;-6.50;64.95
45129;BME280;35512;56.312;101.728;2023-02-23T02:02:27;97944.16;;;-6.16;64.11
45129;BME280;35512;56.312;101.728;2023-02-23T02:05:02;97940.19;;;-6.25;64.07
45129;BME280;35512;56.312;101.728;2023-02-23T02:07:33;97923.09;;;-5.97;64.73
45129;BME280;35512;56.312;101.728;2023-02-23T02:10:07;97935.53;;;-5.30;63.73
45129;BME280;35512;56.312;101.728;2023-02-23T02:12:43;97938.69;;;-4.55;63.49
45129;BME280;35512;56.312;101.728;2023-02-23T02:15:13;97941.81;;;-3.87;62.78
45129;BME280;35512;56.312;101.728;2023-02-23T02:43:10;97928.47;;;0.16;59.00
45129;BME280;35512;56.312;101.728;2023-02-23T02:51:19;97919.81;;;1.51;57.66
45129;BME280;35512;56.312;101.728;2023-02-23T02:54:13;97918.97;;;1.97;57.36
45129;BME280;35512;56.312;101.728;2023-02-23T02:56:47;97926.59;;;2.50;57.28
45129;BME280;35512;56.312;101.728;2023-02-23T02:59:19;97907.13;;;2.99;57.10
45129;BME280;35512;56.312;101.728;2023-02-23T03:02:15;97916.03;;;3.64;56.61
45129;BME280;35512;56.312;101.728;2023-02-23T03:05:56;97923.59;;;4.39;56.44
45129;BME280;35512;56.312;101.728;2023-02-23T03:08:49;97914.50;;;5.22;55.54
45129;BME280;35512;56.312;101.728;2023-02-23T03:11:53;97910.00;;;5.55;54.90
45129;BME280;35512;56.312;101.728;2023-02-23T03:15:03;97916.53;;;6.15;54.77
45129;BME280;35512;56.312;101.728;2023-02-23T03:21:24;97906.84;;;6.84;53.88
45129;BME280;35512;56.312;101.728;2023-02-23T03:30:48;97913.16;;;7.84;52.22
45129;BME280;35512;56.312;101.728;2023-02-23T03:36:35;97908.91;;;8.14;50.80
45129;BME280;35512;56.312;101.728;2023-02-23T03:42:20;97914.09;;;8.02;49.38
45129;BME280;35512;56.312;101.728;2023-02-23T03:45:15;97907.09;;;8.41;49.72
45129;BME280;35512;56.312;101.728;2023-02-23T03:48:08;97903.16;;;8.87;49.23
45129;BME280;35512;56.312;101.728;2023-02-23T03:51:03;97902.09;;;9.23;48.34
45129;BME280;35512;56.312;101.728;2023-02-23T03:54:01;97893.66;;;9.51;47.89
45129;BME280;35512;56.312;101.728;2023-02-23T03:56:51;97894.25;;;9.83;47.59
45129;BME280;35512;56.312;101.728;2023-02-23T03:59:47;97901.72;;;10.34;47.43
45129;BME280;35512;56.312;101.728;2023-02-23T04:02:43;97897.81;;;10.61;46.35
45129;BME280;35512;56.312;101.728;2023-02-23T04:05:35;97893.19;;;10.61;46.15
45129;BME280;35512;56.312;101.728;2023-02-23T04:08:30;97889.56;;;10.57;45.87
45129;BME280;35512;56.312;101.728;2023-02-23T04:11:33;97895.22;;;10.64;46.48
45129;BME280;35512;56.312;101.728;2023-02-23T04:14:40;97889.53;;;10.87;46.30
45129;BME280;35512;56.312;101.728;2023-02-23T04:17:11;97885.28;;;11.07;46.05
45129;BME280;35512;56.312;101.728;2023-02-23T04:19:53;97892.84;;;11.35;45.40
45129;BME280;35512;56.312;101.728;2023-02-23T04:22:22;97887.56;;;11.39;44.84
45129;BME280;35512;56.312;101.728;2023-02-23T04:24:51;97871.22;;;11.69;45.03
45129;BME280;35512;56.312;101.728;2023-02-23T04:27:20;97881.47;;;11.96;44.67
45129;BME280;35512;56.312;101.728;2023-02-23T04:29:49;97880.00;;;11.99;44.04
45129;BME280;35512;56.312;101.728;2023-02-23T04:32:19;97873.47;;;12.00;43.96
45129;BME280;35512;56.312;101.728;2023-02-23T04:34:48;97869.75;;;12.05;43.52
45129;BME280;35512;56.312;101.728;2023-02-23T04:37:17;97878.22;;;12.15;43.33
45129;BME280;35512;56.312;101.728;2023-02-23T04:39:46;97881.72;;;12.28;43.27
45129;BME280;35512;56.312;101.728;2023-02-23T04:42:18;97872.94;;;12.44;43.32
45129;BME280;35512;56.312;101.728;2023-02-23T04:44:47;97875.66;;;12.56;42.77
45129;BME280;35512;56.312;101.728;2023-02-23T04:47:16;97877.22;;;12.70;42.33
45129;BME280;35512;56.312;101.728;2023-02-23T04:49:46;97885.44;;;12.85;42.44
45129;BME280;35512;56.312;101.728;2023-02-23T04:52:15;97881.53;;;13.11;42.40
45129;BME280;35512;56.312;101.728;2023-02-23T04:54:43;97883.97;;;13.41;42.23
45129;BME280;35512;56.312;101.728;2023-02-23T04:57:12;97884.56;;;13.63;41.69
45129;BME280;35512;56.312;101.728;2023-02-23T04:59:42;97885.13;;;13.84;41.78
45129;BME280;35512;56.312;101.728;2023-02-23T05:02:11;97872.09;;;14.06;41.55
45129;BME280;35512;56.312;101.728;2023-02-23T05:04:40;97875.09;;;14.17;41.23
45129;BME280;35512;56.312;101.728;2023-02-23T05:07:09;97876.75;;;14.22;40.90
45129;BME280;35512;56.312;101.728;2023-02-23T05:09:38;97882.69;;;14.27;40.81
45129;BME280;35512;56.312;101.728;2023-02-23T05:12:08;97888.13;;;14.43;40.57
45129;BME280;35512;56.312;101.728;2023-02-23T05:14:37;97884.44;;;14.51;40.51
45129;BME280;35512;56.312;101.728;2023-02-23T05:17:06;97886.75;;;14.49;40.24
45129;BME280;35512;56.312;101.728;2023-02-23T05:19:35;97888.56;;;14.61;40.23
45129;BME280;35512;56.312;101.728;2023-02-23T05:22:05;97886.47;;;14.70;39.91
45129;BME280;35512;56.312;101.728;2023-02-23T05:24:34;97887.69;;;14.89;40.05
45129;BME280;35512;56.312;101.728;2023-02-23T05:27:04;97884.88;;;15.05;39.42
45129;BME280;35512;56.312;101.728;2023-02-23T05:29:34;97879.81;;;15.03;39.30
45129;BME280;35512;56.312;101.728;2023-02-23T05:32:02;97871.97;;;15.18;39.18
45129;BME280;35512;56.312;101.728;2023-02-23T05:34:32;97865.16;;;15.28;38.90
45129;BME280;35512;56.312;101.728;2023-02-23T05:37:01;97875.75;;;15.33;38.97
45129;BME280;35512;56.312;101.728;2023-02-23T05:39:30;97870.09;;;15.42;38.58
45129;BME280;35512;56.312;101.728;2023-02-23T05:41:59;97876.41;;;15.46;38.73
45129;BME280;35512;56.312;101.728;2023-02-23T05:44:28;97873.25;;;15.44;38.88
45129;BME280;35512;56.312;101.728;2023-02-23T05:46:57;97864.69;;;15.65;38.65
45129;BME280;35512;56.312;101.728;2023-02-23T05:49:26;97864.50;;;15.74;38.49
45129;BME280;35512;56.312;101.728;2023-02-23T05:51:55;97859.75;;;15.70;38.14
45129;BME280;35512;56.312;101.728;2023-02-23T05:54:24;97854.91;;;15.60;38.25
45129;BME280;35512;56.312;101.728;2023-02-23T05:56:53;97862.19;;;15.76;38.48
45129;BME280;35512;56.312;101.728;2023-02-23T05:59:22;97863.53;;;15.85;38.12
45129;BME280;35512;56.312;101.728;2023-02-23T06:01:51;97860.47;;;15.87;37.95
45129;BME280;35512;56.312;101.728;2023-02-23T06:04:23;97855.59;;;15.77;37.71
45129;BME280;35512;56.312;101.728;2023-02-23T06:06:52;97858.72;;;15.16;37.30
45129;BME280;35512;56.312;101.728;2023-02-23T06:09:21;97861.72;;;14.60;37.63
45129;BME280;35512;56.312;101.728;2023-02-23T06:11:50;97846.75;;;14.34;37.83
45129;BME280;35512;56.312;101.728;2023-02-23T06:14:19;97850.53;;;14.45;37.90
45129;BME280;35512;56.312;101.728;2023-02-23T06:16:48;97838.97;;;14.48;37.79
45129;BME280;35512;56.312;101.728;2023-02-23T06:19:17;97835.31;;;14.76;37.96
45129;BME280;35512;56.312;101.728;2023-02-23T06:21:46;97821.03;;;14.99;37.77
45129;BME280;35512;56.312;101.728;2023-02-23T06:24:15;97826.75;;;15.13;37.77
45129;BME280;35512;56.312;101.728;2023-02-23T06:26:45;97827.44;;;15.07;37.50
45129;BME280;35512;56.312;101.728;2023-02-23T06:29:16;97801.47;;;14.74;37.76
45129;BME280;35512;56.312;101.728;2023-02-23T06:31:45;97822.81;;;14.72;37.63
45129;BME280;35512;56.312;101.728;2023-02-23T06:34:14;97826.84;;;14.62;37.36
45129;BME280;35512;56.312;101.728;2023-02-23T06:36:43;97814.59;;;14.52;37.52
45129;BME280;35512;56.312;101.728;2023-02-23T06:39:13;97813.41;;;14.53;37.69
45129;BME280;35512;56.312;101.728;2023-02-23T06:41:42;97808.16;;;14.60;37.44
45129;BME280;35512;56.312;101.728;2023-02-23T06:44:11;97803.72;;;14.36;37.53
45129;BME280;35512;56.312;101.728;2023-02-23T06:46:40;97805.69;;;14.03;37.42
45129;BME280;35512;56.312;101.728;2023-02-23T06:49:11;97797.91;;;14.18;38.53
45129;BME280;35512;56.312;101.728;2023-02-23T06:51:43;97796.88;;;14.78;38.17
45129;BME280;35512;56.312;101.728;2023-02-23T06:54:12;97797.28;;;15.15;38.36
45129;BME280;35512;56.312;101.728;2023-02-23T06:56:41;97801.81;;;15.50;38.35
45129;BME280;35512;56.312;101.728;2023-02-23T06:59:10;97794.91;;;15.76;38.12
45129;BME280;35512;56.312;101.728;2023-02-23T07:01:40;97791.69;;;15.94;38.19
45129;BME280;35512;56.312;101.728;2023-02-23T07:04:12;97786.38;;;16.01;37.93
45129;BME280;35512;56.312;101.728;2023-02-23T07:06:43;97782.25;;;16.11;37.67
45129;BME280;35512;56.312;101.728;2023-02-23T07:09:12;97789.88;;;16.01;37.56
45129;BME280;35512;56.312;101.728;2023-02-23T07:11:43;97780.94;;;15.58;37.49
45129;BME280;35512;56.312;101.728;2023-02-23T07:14:14;97784.00;;;15.33;37.24
45129;BME280;35512;56.312;101.728;2023-02-23T07:16:53;97779.03;;;14.77;37.20
45129;BME280;35512;56.312;101.728;2023-02-23T07:19:22;97781.38;;;14.43;37.34
45129;BME280;35512;56.312;101.728;2023-02-23T07:21:51;97782.25;;;14.47;38.13
45129;BME280;35512;56.312;101.728;2023-02-23T07:24:21;97777.16;;;14.81;38.11
45129;BME280;35512;56.312;101.728;2023-02-23T07:26:50;97767.72;;;15.14;38.33
45129;BME280;35512;56.312;101.728;2023-02-23T07:29:19;97789.00;;;15.51;38.12
45129;BME280;35512;56.312;101.728;2023-02-23T07:31:51;97775.81;;;15.53;38.12
45129;BME280;35512;56.312;101.728;2023-02-23T07:34:21;97783.56;;;15.74;38.48
45129;BME280;35512;56.312;101.728;2023-02-23T07:36:50;97771.06;;;15.50;37.74
45129;BME280;35512;56.312;101.728;2023-02-23T07:39:19;97776.31;;;14.77;38.04
45129;BME280;35512;56.312;101.728;2023-02-23T07:41:47;97771.41;;;14.15;38.46
45129;BME280;35512;56.312;101.728;2023-02-23T07:44:19;97768.63;;;13.79;38.09
45129;BME280;35512;56.312;101.728;2023-02-23T07:46:48;97758.06;;;13.30;38.86
45129;BME280;35512;56.312;101.728;2023-02-23T07:49:18;97769.75;;;13.18;39.40
45129;BME280;35512;56.312;101.728;2023-02-23T07:51:46;97756.28;;;13.50;39.70
45129;BME280;35512;56.312;101.728;2023-02-23T07:54:16;97761.25;;;13.96;39.67
45129;BME280;35512;56.312;101.728;2023-02-23T07:56:45;97770.38;;;14.19;39.49
45129;BME280;35512;56.312;101.728;2023-02-23T07:59:13;97761.25;;;14.12;39.50
45129;BME280;35512;56.312;101.728;2023-02-23T08:01:43;97754.81;;;14.00;39.81
45129;BME280;35512;56.312;101.728;2023-02-23T08:04:12;97759.94;;;14.06;39.88
45129;BME280;35512;56.312;101.728;2023-02-23T08:06:41;97755.47;;;14.13;39.84
45129;BME280;35512;56.312;101.728;2023-02-23T08:09:11;97747.69;;;14.12;39.76
45129;BME280;35512;56.312;101.728;2023-02-23T08:11:40;97749.97;;;14.10;39.83
45129;BME280;35512;56.312;101.728;2023-02-23T08:14:09;97754.88;;;14.04;39.76
45129;BME280;35512;56.312;101.728;2023-02-23T08:16:38;97749.38;;;14.00;40.12
45129;BME280;35512;56.312;101.728;2023-02-23T08:19:08;97752.69;;;13.94;39.96
45129;BME280;35512;56.312;101.728;2023-02-23T08:21:37;97743.50;;;13.82;40.29
45129;BME280;35512;56.312;101.728;2023-02-23T08:24:06;97739.38;;;13.89;40.30
45129;BME280;35512;56.312;101.728;2023-02-23T08:26:35;97747.09;;;13.86;40.22
45129;BME280;35512;56.312;101.728;2023-02-23T08:29:05;97752.78;;;13.65;39.95
45129;BME280;35512;56.312;101.728;2023-02-23T08:31:35;97748.50;;;13.48;40.49
45129;BME280;35512;56.312;101.728;2023-02-23T08:34:04;97743.25;;;13.27;40.83
45129;BME280;35512;56.312;101.728;2023-02-23T08:36:33;97744.28;;;13.07;40.59
45129;BME280;35512;56.312;101.728;2023-02-23T08:39:02;97741.19;;;12.80;40.54
45129;BME280;35512;56.312;101.728;2023-02-23T08:41:33;97748.72;;;12.58;40.65
45129;BME280;35512;56.312;101.728;2023-02-23T08:44:02;97747.97;;;12.45;41.20
45129;BME280;35512;56.312;101.728;2023-02-23T08:46:32;97747.53;;;12.31;41.11
45129;BME280;35512;56.312;101.728;2023-02-23T08:49:01;97735.03;;;12.14;40.99
45129;BME280;35512;56.312;101.728;2023-02-23T08:51:31;97744.53;;;11.95;41.38
45129;BME280;35512;56.312;101.728;2023-02-23T08:54:02;97736.59;;;11.78;41.27
45129;BME280;35512;56.312;101.728;2023-02-23T08:56:31;97746.47;;;11.49;41.44
45129;BME280;35512;56.312;101.728;2023-02-23T08:59:00;97737.00;;;10.97;41.90
45129;BME280;35512;56.312;101.728;2023-02-23T09:01:29;97736.31;;;10.67;41.84
45129;BME280;35512;56.312;101.728;2023-02-23T09:03:59;97735.75;;;10.31;41.86
45129;BME280;35512;56.312;101.728;2023-02-23T09:06:29;97736.50;;;9.80;41.82
45129;BME280;35512;56.312;101.728;2023-02-23T09:08:58;97723.38;;;9.23;41.54
45129;BME280;35512;56.312;101.728;2023-02-23T09:11:27;97725.38;;;8.52;41.53
45129;BME280;35512;56.312;101.728;2023-02-23T09:13:56;97733.97;;;7.48;41.94
45129;BME280;35512;56.312;101.728;2023-02-23T09:16:24;97742.19;;;6.15;42.96
45129;BME280;35512;56.312;101.728;2023-02-23T09:18:53;97733.25;;;4.32;44.96
45129;BME280;35512;56.312;101.728;2023-02-23T09:21:23;97747.47;;;2.77;46.84
45129;BME280;35512;56.312;101.728;2023-02-23T09:23:53;97746.19;;;1.59;48.25
45129;BME280;35512;56.312;101.728;2023-02-23T09:26:23;97736.72;;;0.55;48.80
45129;BME280;35512;56.312;101.728;2023-02-23T09:28:54;97741.31;;;-0.24;49.50
45129;BME280;35512;56.312;101.728;2023-02-23T09:31:23;97736.19;;;-0.89;49.84
45129;BME280;35512;56.312;101.728;2023-02-23T09:33:53;97744.56;;;-1.35;49.70
45129;BME280;35512;56.312;101.728;2023-02-23T09:36:24;97730.31;;;-1.89;49.79
45129;BME280;35512;56.312;101.728;2023-02-23T09:38:55;97723.63;;;-2.41;49.64
45129;BME280;35512;56.312;101.728;2023-02-23T09:44:02;97733.22;;;-3.13;50.25
45129;BME280;35512;56.312;101.728;2023-02-23T09:47:11;97716.88;;;-3.44;51.02
45129;BME280;35512;56.312;101.728;2023-02-23T09:49:44;97720.84;;;-3.75;50.53
45129;BME280;35512;56.312;101.728;2023-02-23T09:52:18;97716.47;;;-3.98;51.24
45129;BME280;35512;56.312;101.728;2023-02-23T09:54:48;97715.66;;;-4.16;51.25
45129;BME280;35512;56.312;101.728;2023-02-23T09:57:23;97722.78;;;-4.28;51.74
45129;BME280;35512;56.312;101.728;2023-02-23T09:59:56;97716.41;;;-4.44;51.82
45129;BME280;35512;56.312;101.728;2023-02-23T10:05:08;97720.16;;;-4.81;52.35
45129;BME280;35512;56.312;101.728;2023-02-23T10:07:47;97723.81;;;-5.05;52.97
45129;BME280;35512;56.312;101.728;2023-02-23T10:10:41;97730.69;;;-5.28;53.85
45129;BME280;35512;56.312;101.728;2023-02-23T10:13:34;97731.66;;;-5.53;53.63
45129;BME280;35512;56.312;101.728;2023-02-23T10:16:20;97733.75;;;-5.85;53.67
45129;BME280;35512;56.312;101.728;2023-02-23T10:19:00;97733.72;;;-6.09;53.49
45129;BME280;35512;56.312;101.728;2023-02-23T10:21:43;97736.56;;;-6.29;54.01
45129;BME280;35512;56.312;101.728;2023-02-23T10:27:04;97737.16;;;-6.64;53.71
45129;BME280;35512;56.312;101.728;2023-02-23T10:29:52;97737.25;;;-6.89;54.22
45129;BME280;35512;56.312;101.728;2023-02-23T10:32:37;97737.38;;;-7.03;53.38
45129;BME280;35512;56.312;101.728;2023-02-23T10:35:14;97738.34;;;-7.22;53.72
45129;BME280;35512;56.312;101.728;2023-02-23T10:37:44;97731.97;;;-7.33;53.55
45129;BME280;35512;56.312;101.728;2023-02-23T10:40:22;97731.06;;;-7.45;53.50
45129;BME280;35512;56.312;101.728;2023-02-23T10:42:52;97734.75;;;-7.53;53.21
45129;BME280;35512;56.312;101.728;2023-02-23T10:45:24;97733.78;;;-7.59;53.37
45129;BME280;35512;56.312;101.728;2023-02-23T10:48:04;97735.22;;;-7.63;53.56
45129;BME280;35512;56.312;101.728;2023-02-23T10:50:36;97737.47;;;-7.67;53.31
45129;BME280;35512;56.312;101.728;2023-02-23T10:55:38;97726.25;;;-7.81;53.37
45129;BME280;35512;56.312;101.728;2023-02-23T10:58:10;97730.31;;;-7.85;53.42
45129;BME280;35512;56.312;101.728;2023-02-23T11:03:41;97724.34;;;-7.99;53.73
45129;BME280;35512;56.312;101.728;2023-02-23T11:06:33;97729.22;;;-8.02;53.86
45129;BME280;35512;56.312;101.728;2023-02-23T11:09:24;97730.69;;;-8.13;54.21
45129;BME280;35512;56.312;101.728;2023-02-23T11:14:55;97731.13;;;-8.23;53.82
45129;BME280;35512;56.312;101.728;2023-02-23T11:17:34;97735.97;;;-8.26;54.20
45129;BME280;35512;56.312;101.728;2023-02-23T11:20:25;97742.06;;;-8.33;54.30
45129;BME280;35512;56.312;101.728;2023-02-23T11:22:56;97731.81;;;-8.41;54.04
45129;BME280;35512;56.312;101.728;2023-02-23T11:25:36;97733.28;;;-8.45;53.71
45129;BME280;35512;56.312;101.728;2023-02-23T11:28:17;97736.44;;;-8.43;54.25
45129;BME280;35512;56.312;101.728;2023-02-23T11:30:50;97739.06;;;-8.43;54.09
45129;BME280;35512;56.312;101.728;2023-02-23T11:33:24;97746.94;;;-8.43;53.93
45129;BME280;35512;56.312;101.728;2023-02-23T11:36:15;97739.75;;;-8.47;54.50
45129;BME280;35512;56.312;101.728;2023-02-23T11:38:45;97737.72;;;-8.52;54.26
45129;BME280;35512;56.312;101.728;2023-02-23T11:41:21;97729.88;;;-8.59;54.49
45129;BME280;35512;56.312;101.728;2023-02-23T11:43:55;97737.56;;;-8.64;54.33
45129;BME280;35512;56.312;101.728;2023-02-23T11:46:25;97730.75;;;-8.72;54.22
45129;BME280;35512;56.312;101.728;2023-02-23T11:49:06;97742.00;;;-8.71;54.72
45129;BME280;35512;56.312;101.728;2023-02-23T11:51:40;97737.81;;;-8.72;54.56
45129;BME280;35512;56.312;101.728;2023-02-23T11:54:20;97740.22;;;-8.71;55.14
45129;BME280;35512;56.312;101.728;2023-02-23T11:56:51;97738.38;;;-8.70;54.43
45129;BME280;35512;56.312;101.728;2023-02-23T11:59:32;97743.84;;;-8.72;54.96
45129;BME280;35512;56.312;101.728;2023-02-23T12:02:44;97738.81;;;-8.73;55.41
45129;BME280;35512;56.312;101.728;2023-02-23T12:05:22;97746.44;;;-8.72;54.71
45129;BME280;35512;56.312;101.728;2023-02-23T12:08:12;97738.81;;;-8.73;54.72
45129;BME280;35512;56.312;101.728;2023-02-23T12:10:50;97736.41;;;-8.75;54.63
45129;BME280;35512;56.312;101.728;2023-02-23T12:16:06;97737.81;;;-8.79;55.37
45129;BME280;35512;56.312;101.728;2023-02-23T12:19:06;97742.63;;;-8.76;54.95
45129;BME280;35512;56.312;101.728;2023-02-23T12:27:03;97729.16;;;-8.86;54.85
45129;BME280;35512;56.312;101.728;2023-02-23T12:29:54;97728.56;;;-8.88;54.89
45129;BME280;35512;56.312;101.728;2023-02-23T12:32:55;97742.66;;;-8.89;55.26
45129;BME280;35512;56.312;101.728;2023-02-23T12:35:39;97730.56;;;-8.90;54.89
45129;BME280;35512;56.312;101.728;2023-02-23T12:41:00;97721.56;;;-9.01;55.32
45129;BME280;35512;56.312;101.728;2023-02-23T12:43:49;97727.59;;;-9.01;55.46
45129;BME280;35512;56.312;101.728;2023-02-23T12:46:30;97719.75;;;-9.07;55.22
45129;BME280;35512;56.312;101.728;2023-02-23T12:52:27;97716.72;;;-9.18;56.07
45129;BME280;35512;56.312;101.728;2023-02-23T12:54:57;97723.38;;;-9.22;55.62
45129;BME280;35512;56.312;101.728;2023-02-23T12:57:39;97725.00;;;-9.21;56.05
45129;BME280;35512;56.312;101.728;2023-02-23T13:06:06;97725.41;;;-9.17;56.06
45129;BME280;35512;56.312;101.728;2023-02-23T13:16:54;97709.91;;;-9.12;55.47
45129;BME280;35512;56.312;101.728;2023-02-23T13:19:34;97704.66;;;-9.12;55.74
45129;BME280;35512;56.312;101.728;2023-02-23T13:25:59;97699.81;;;-9.02;55.97
45129;BME280;35512;56.312;101.728;2023-02-23T13:28:02;97700.63;;;-9.01;55.63
45129;BME280;35512;56.312;101.728;2023-02-23T13:30:32;97696.59;;;-9.04;56.05
45129;BME280;35512;56.312;101.728;2023-02-23T13:33:05;97703.81;;;-8.99;56.03
45129;BME280;35512;56.312;101.728;2023-02-23T13:35:40;97678.69;;;-9.13;55.70
45129;BME280;35512;56.312;101.728;2023-02-23T13:38:25;97698.19;;;-9.03;56.33
45129;BME280;35512;56.312;101.728;2023-02-23T13:43:51;97677.25;;;-9.09;56.31
45129;BME280;35512;56.312;101.728;2023-02-23T13:46:44;97678.84;;;-9.02;56.50
45129;BME280;35512;56.312;101.728;2023-02-23T13:49:41;97678.28;;;-9.04;56.54
45129;BME280;35512;56.312;101.728;2023-02-23T13:54:57;97679.09;;;-9.17;56.11
45129;BME280;35512;56.312;101.728;2023-02-23T13:57:32;97661.59;;;-9.23;56.25
45129;BME280;35512;56.312;101.728;2023-02-23T14:00:02;97668.06;;;-9.25;56.21
45129;BME280;35512;56.312;101.728;2023-02-23T14:02:40;97676.88;;;-9.20;56.78
45129;BME280;35512;56.312;101.728;2023-02-23T14:05:15;97672.25;;;-9.24;56.37
45129;BME280;35512;56.312;101.728;2023-02-23T14:07:52;97674.28;;;-9.33;56.77
45129;BME280;35512;56.312;101.728;2023-02-23T14:13:24;97679.94;;;-9.43;57.20
45129;BME280;35512;56.312;101.728;2023-02-23T14:16:13;97674.91;;;-9.44;57.13
45129;BME280;35512;56.312;101.728;2023-02-23T14:24:18;97670.09;;;-9.54;57.36
45129;BME280;35512;56.312;101.728;2023-02-23T14:29:43;97656.22;;;-9.61;57.44
45129;BME280;35512;56.312;101.728;2023-02-23T14:34:54;97668.28;;;-9.67;57.34
45129;BME280;35512;56.312;101.728;2023-02-23T14:40:18;97670.09;;;-9.74;57.44
45129;BME280;35512;56.312;101.728;2023-02-23T14:42:50;97674.72;;;-9.76;57.59
45129;BME280;35512;56.312;101.728;2023-02-23T14:45:22;97664.47;;;-9.78;57.83
45129;BME280;35512;56.312;101.728;2023-02-23T14:48:11;97671.31;;;-9.77;57.47
45129;BME280;35512;56.312;101.728;2023-02-23T14:50:41;97664.66;;;-9.79;57.49
45129;BME280;35512;56.312;101.728;2023-02-23T14:53:20;97663.25;;;-9.82;57.36
45129;BME280;35512;56.312;101.728;2023-02-23T14:55:50;97655.41;;;-9.89;57.37
45129;BME280;35512;56.312;101.728;2023-02-23T14:58:37;97651.59;;;-9.93;58.02
45129;BME280;35512;56.312;101.728;2023-02-23T15:01:06;97657.44;;;-9.91;57.62
45129;BME280;35512;56.312;101.728;2023-02-23T15:03:36;97648.19;;;-9.93;57.89
45129;BME280;35512;56.312;101.728;2023-02-23T15:06:05;97654.41;;;-9.94;57.67
45129;BME280;35512;56.312;101.728;2023-02-23T15:08:38;97647.97;;;-9.98;57.82
45129;BME280;35512;56.312;101.728;2023-02-23T15:11:12;97653.59;;;-9.95;57.70
45129;BME280;35512;56.312;101.728;2023-02-23T15:13:47;97647.56;;;-9.95;57.83
45129;BME280;35512;56.312;101.728;2023-02-23T15:16:34;97637.91;;;-10.02;58.09
45129;BME280;35512;56.312;101.728;2023-02-23T15:19:04;97643.34;;;-10.03;57.83